createdAt,value
2023-04-23T00:00:17.245Z,0.695497
2023-04-23T00:05:16.482Z,0.471489
2023-04-23T00:10:15.878Z,0.444693
2023-04-23T00:15:15.786Z,0.515918
2023-04-23T00:20:16.371Z,0.546871
2023-04-23T00:25:16.083Z,0.629268
2023-04-23T00:30:15.869Z,0.804026
2023-04-23T00:35:16.281Z,0.696291
2023-04-23T00:40:16.026Z,0.460016
2023-04-23T00:45:15.945Z,0.397110
2023-04-23T00:50:16.296Z,0.441620
2023-04-23T00:55:16.223Z,0.363111
2023-04-23T01:00:15.922Z,0.310214
2023-04-23T01:05:16.341Z,0.321358
2023-04-23T01:10:16.427Z,0.455342
2023-04-23T01:15:15.929Z,0.466328
2023-04-23T01:20:16.118Z,0.275266
2023-04-23T01:25:16.270Z,0.215501
2023-04-23T01:30:16.412Z,0.182173
2023-04-23T01:35:15.885Z,0.137202
2023-04-23T01:40:16.081Z,0.136707
2023-04-23T01:45:16.949Z,0.123282
2023-04-23T01:50:15.773Z,0.102938
2023-04-23T01:55:16.489Z,0.136021
2023-04-23T02:00:16.057Z,0.140107
2023-04-23T02:05:17.146Z,0.106919
2023-04-23T02:10:15.953Z,0.126351
2023-04-23T02:15:16.125Z,0.120392
2023-04-23T02:20:16.501Z,0.095613
2023-04-23T02:25:16.073Z,0.071709
2023-04-23T02:30:16.261Z,0.072621
2023-04-23T02:35:16.773Z,0.071733
2023-04-23T02:40:16.515Z,0.060732
2023-04-23T02:45:16.524Z,0.047262
2023-04-23T02:50:16.641Z,0.041739
2023-04-23T02:55:16.291Z,0.038091
2023-04-23T03:00:15.764Z,0.038047
2023-04-23T03:05:16.136Z,0.036498
2023-04-23T03:10:16.304Z,0.032974
2023-04-23T03:15:16.416Z,0.031918
2023-04-23T03:20:15.802Z,0.032053
2023-04-23T03:25:16.772Z,0.029636
2023-04-23T03:30:16.598Z,0.028128
2023-04-23T03:35:16.276Z,0.027031
2023-04-23T03:40:15.991Z,0.027372
2023-04-23T03:45:16.159Z,0.026716
2023-04-23T03:50:16.436Z,0.026950
2023-04-23T03:55:16.960Z,0.026474
2023-04-23T04:00:16.942Z,0.026808
2023-04-23T04:05:16.911Z,0.026861
2023-04-23T04:10:15.996Z,0.027073
2023-04-23T04:15:16.015Z,0.027581
2023-04-23T04:20:16.348Z,0.026458
2023-04-23T04:25:16.342Z,0.026254
2023-04-23T04:30:16.402Z,0.027860
2023-04-23T04:35:16.476Z,0.027711
2023-04-23T04:40:16.192Z,0.027422
2023-04-23T04:45:16.808Z,0.027669
2023-04-23T04:50:17.804Z,0.027377
2023-04-23T04:55:16.004Z,0.027203
2023-04-23T05:00:15.977Z,0.026744
2023-04-23T05:05:16.624Z,0.027203
2023-04-23T05:10:17.061Z,0.026968
2023-04-23T05:15:15.709Z,0.027614
2023-04-23T05:20:16.055Z,0.027252
2023-04-23T05:25:16.243Z,0.027093
2023-04-23T05:30:16.302Z,0.028538
2023-04-23T05:35:16.007Z,0.027801
2023-04-23T05:40:17.173Z,0.027816
2023-04-23T05:45:15.834Z,0.026914
2023-04-23T05:50:16.563Z,0.028648
2023-04-23T05:55:21.721Z,0.026681
2023-04-23T06:00:15.970Z,0.027589
2023-04-23T06:05:21.538Z,0.027399
2023-04-23T06:10:17.829Z,0.026878
2023-04-23T06:15:15.800Z,0.026429
2023-04-23T06:20:16.314Z,0.027850
2023-04-23T06:25:16.691Z,0.027029
2023-04-23T06:30:16.164Z,0.027583
2023-04-23T06:35:16.066Z,0.026923
2023-04-23T06:40:16.123Z,0.026575
2023-04-23T06:45:16.586Z,0.027906
2023-04-23T06:50:16.844Z,0.027519
2023-04-23T06:55:16.132Z,0.026452
2023-04-23T07:00:16.160Z,0.027785
2023-04-23T07:05:16.629Z,0.027558
2023-04-23T07:10:18.181Z,0.028124
2023-04-23T07:15:15.688Z,0.027979
2023-04-23T07:20:17.330Z,0.028967
2023-04-23T07:25:16.917Z,0.026941
2023-04-23T07:30:15.798Z,0.026616
2023-04-23T07:35:16.900Z,0.026850
2023-04-23T07:40:16.870Z,0.027377
2023-04-23T07:45:15.781Z,0.026106
2023-04-23T07:50:15.914Z,0.027922
2023-04-23T07:55:16.245Z,0.026713
2023-04-23T08:00:15.962Z,0.027286
2023-04-23T08:05:16.385Z,0.026724
2023-04-23T08:10:16.425Z,0.026950
2023-04-23T08:15:16.277Z,0.028045
2023-04-23T08:20:15.726Z,0.027836
2023-04-23T08:25:15.802Z,0.026977
2023-04-23T08:30:15.997Z,0.028512
2023-04-23T08:35:16.502Z,0.028285
2023-04-23T08:40:16.502Z,0.027396
2023-04-23T08:45:16.480Z,0.027365
2023-04-23T08:50:16.047Z,0.027014
2023-04-23T08:55:16.141Z,0.027785
2023-04-23T09:00:16.490Z,0.027675
2023-04-23T09:05:15.869Z,0.026843
2023-04-23T09:10:18.396Z,0.027297
2023-04-23T09:15:16.161Z,0.027386
2023-04-23T09:20:16.164Z,0.026664
2023-04-23T09:25:15.874Z,0.026485
2023-04-23T09:30:16.014Z,0.027691
2023-04-23T09:35:15.694Z,0.028155
2023-04-23T09:40:16.332Z,0.027353
2023-04-23T09:45:16.050Z,0.026914
2023-04-23T09:50:16.453Z,0.027040
2023-04-23T09:55:15.909Z,0.028197
2023-04-23T10:00:16.715Z,0.027275
2023-04-23T10:05:24.352Z,0.027289
2023-04-23T10:10:15.940Z,0.026071
2023-04-23T10:15:15.828Z,0.026592
2023-04-23T10:20:16.001Z,0.026564
2023-04-23T10:25:16.545Z,0.026109
2023-04-23T10:30:16.566Z,0.026441
2023-04-23T10:35:16.129Z,0.026623
2023-04-23T10:40:16.641Z,0.027980
2023-04-23T10:45:25.956Z,0.027237
2023-04-23T10:50:16.124Z,0.027405
2023-04-23T10:55:15.777Z,0.027013
2023-04-23T11:00:17.365Z,0.026870
2023-04-23T11:05:17.123Z,0.027519
2023-04-23T11:10:16.450Z,0.026531
2023-04-23T11:15:15.821Z,0.026164
2023-04-23T11:20:17.060Z,0.026668
2023-04-23T11:25:15.880Z,0.027558
2023-04-23T11:30:15.878Z,0.027195
2023-04-23T11:35:16.204Z,0.026395
2023-04-23T11:40:16.051Z,0.026806
2023-04-23T11:45:15.848Z,0.026959
2023-04-23T11:50:15.825Z,0.027731
2023-04-23T11:55:15.953Z,0.027182
2023-04-23T12:00:15.779Z,0.027647
2023-04-23T12:05:16.204Z,0.027656
2023-04-23T12:10:16.636Z,0.027278
2023-04-23T12:15:16.894Z,0.028200
2023-04-23T12:20:15.867Z,0.028513
2023-04-23T12:25:15.953Z,0.028128
2023-04-23T12:30:15.756Z,0.026941
2023-04-23T12:35:16.051Z,0.027584
2023-04-23T12:40:15.775Z,0.027150
2023-04-23T12:45:16.392Z,0.027951
2023-04-23T12:50:15.886Z,0.028399
2023-04-23T12:55:15.818Z,0.029439
2023-04-23T13:00:15.849Z,0.030288
2023-04-23T13:05:15.862Z,0.032173
2023-04-23T13:10:15.800Z,0.033316
2023-04-23T13:15:16.274Z,0.036738
2023-04-23T13:20:16.613Z,0.038546
2023-04-23T13:25:15.815Z,0.040402
2023-04-23T13:30:15.852Z,0.041860
2023-04-23T13:35:16.109Z,0.052224
2023-04-23T13:40:16.014Z,0.065733
2023-04-23T13:45:16.888Z,0.090860
2023-04-23T13:50:15.841Z,0.096745
2023-04-23T13:55:16.163Z,0.098090
2023-04-23T14:00:16.646Z,0.119828
2023-04-23T14:05:16.303Z,0.125462
2023-04-23T14:10:16.423Z,0.117164
2023-04-23T14:15:15.984Z,0.124075
2023-04-23T14:20:16.315Z,0.157376
2023-04-23T14:25:16.662Z,0.181624
2023-04-23T14:30:16.681Z,0.160033
2023-04-23T14:35:15.848Z,0.137116
2023-04-23T14:40:16.833Z,0.131833
2023-04-23T14:45:16.037Z,0.138983
2023-04-23T14:50:15.931Z,0.143859
2023-04-23T14:55:15.878Z,0.177730
2023-04-23T15:00:17.047Z,0.211884
2023-04-23T15:05:17.357Z,0.272465
2023-04-23T15:10:16.701Z,0.305784
2023-04-23T15:15:16.871Z,0.419745
2023-04-23T15:20:15.940Z,0.429156
2023-04-23T15:25:16.197Z,0.495392
2023-04-23T15:30:17.054Z,0.595467
2023-04-23T15:35:15.822Z,0.684323
2023-04-23T15:40:16.484Z,0.656561
2023-04-23T15:45:15.832Z,0.488988
2023-04-23T15:50:16.187Z,0.578015
2023-04-23T15:55:16.287Z,0.709440
2023-04-23T16:00:16.828Z,0.601091
2023-04-23T16:05:16.298Z,0.705409
2023-04-23T16:10:16.249Z,0.941461
2023-04-23T16:15:16.653Z,0.999198
2023-04-23T16:20:16.328Z,1.181529
2023-04-23T16:25:17.283Z,1.255005
2023-04-23T16:30:16.146Z,1.135656
2023-04-23T16:35:15.795Z,0.908100
2023-04-23T16:40:16.511Z,0.945785
2023-04-23T16:45:16.094Z,1.104445
2023-04-23T16:50:16.008Z,1.196547
2023-04-23T16:55:16.063Z,1.140836
2023-04-23T17:00:15.846Z,1.241696
2023-04-23T17:05:15.700Z,1.960952
2023-04-23T17:10:15.994Z,2.680389
2023-04-23T17:15:15.794Z,2.210886
2023-04-23T17:20:16.334Z,1.892747
2023-04-23T17:25:16.173Z,1.816475
2023-04-23T17:30:16.142Z,2.576360
2023-04-23T17:35:16.157Z,3.891889
2023-04-23T17:40:15.801Z,3.263808
2023-04-23T17:45:16.725Z,4.287994
2023-04-23T17:50:16.048Z,4.532883
2023-04-23T17:55:16.176Z,3.869340
2023-04-23T18:00:16.685Z,3.745996
2023-04-23T18:05:16.943Z,3.828889
2023-04-23T18:10:17.328Z,3.217739
2023-04-23T18:15:16.247Z,3.452407
2023-04-23T18:20:16.209Z,3.566467
2023-04-23T18:25:15.928Z,4.330679
2023-04-23T18:30:16.199Z,4.380210
2023-04-23T18:35:15.925Z,4.391124
2023-04-23T18:40:15.908Z,3.949000
2023-04-23T18:45:15.853Z,2.464540
2023-04-23T18:50:15.994Z,3.563103
2023-04-23T18:55:16.105Z,3.486968
2023-04-23T19:00:15.989Z,4.192142
2023-04-23T19:05:15.861Z,3.368615
2023-04-23T19:10:16.840Z,3.042843
2023-04-23T19:15:15.944Z,3.125066
2023-04-23T19:20:15.931Z,2.932432
2023-04-23T19:25:16.670Z,3.385028
2023-04-23T19:30:17.197Z,3.843141
2023-04-23T19:35:16.331Z,4.854179
2023-04-23T19:40:16.414Z,4.666763
2023-04-23T19:45:15.836Z,4.500462
2023-04-23T19:50:16.642Z,2.467632
2023-04-23T19:55:15.924Z,2.644713
2023-04-23T20:00:16.768Z,3.065372
2023-04-23T20:05:15.921Z,2.295192
2023-04-23T20:10:17.533Z,2.102027
2023-04-23T20:15:16.505Z,1.440670
2023-04-23T20:20:15.963Z,1.099679
2023-04-23T20:25:15.725Z,1.159600
2023-04-23T20:30:16.583Z,0.960526
2023-04-23T20:35:15.871Z,0.657931
2023-04-23T20:40:17.167Z,0.560148
2023-04-23T20:45:16.469Z,0.463268
2023-04-23T20:50:17.396Z,0.439594
2023-04-23T20:55:17.348Z,0.489339
2023-04-23T21:00:16.682Z,0.698784
2023-04-23T21:05:15.726Z,0.719047
2023-04-23T21:10:16.695Z,1.214570
2023-04-23T21:15:17.468Z,2.314835
2023-04-23T21:20:15.829Z,2.139235
2023-04-23T21:25:15.792Z,1.964087
2023-04-23T21:30:15.814Z,1.864596
2023-04-23T21:35:16.499Z,1.779860
2023-04-23T21:40:16.676Z,1.539775
2023-04-23T21:45:16.089Z,1.071057
2023-04-23T21:50:16.821Z,1.032949
2023-04-23T21:55:15.858Z,1.085331
2023-04-23T22:00:16.185Z,1.056032
2023-04-23T22:05:16.209Z,1.413014
2023-04-23T22:10:16.444Z,1.655772
2023-04-23T22:15:16.401Z,2.741074
2023-04-23T22:20:18.168Z,2.709998
2023-04-23T22:25:16.169Z,2.007087
2023-04-23T22:30:15.996Z,1.798271
2023-04-23T22:35:16.139Z,1.465048
2023-04-23T22:40:16.634Z,1.216187
2023-04-23T22:45:16.011Z,1.046604
2023-04-23T22:50:16.399Z,0.849048
2023-04-23T22:55:16.062Z,0.679894
2023-04-23T23:00:16.854Z,0.531254
2023-04-23T23:05:15.891Z,0.476199
2023-04-23T23:10:15.903Z,0.412305
2023-04-23T23:15:15.984Z,0.477063
2023-04-23T23:20:16.396Z,0.791616
2023-04-23T23:25:16.314Z,0.869596
2023-04-23T23:30:15.877Z,0.838217
2023-04-23T23:35:16.253Z,0.776891
2023-04-23T23:40:15.991Z,0.727476
2023-04-23T23:45:15.765Z,0.691084
2023-04-23T23:50:16.369Z,0.631538
2023-04-23T23:55:16.781Z,0.562385
